Time;durP1;ratioP1;P1;durP2;ratioP2;P2;SDS_P1;SDS_P2;PMS_P1;PMS_P2;Temp;Humidity;BMP_temperature;BMP_pressure;BME280_temperature;BME280_humidity;BME280_pressure;Samples;Min_cycle;Max_cycle;Signal;HPM_P1;HPM_P2
2023/01/27 00:00:12;;;;;;;44.93;20.35;;;;;;;-2.14;81.21;100827.98;1748177;82;21219;-82
2023/01/27 00:03:19;;;;;;;41.55;19.50;;;;;;;-2.22;81.49;100818.14;1746831;82;21207;-87
2023/01/27 00:06:23;;;;;;;46.95;20.17;;;;;;;-2.31;81.73;100814.14;1764126;80;21238;-85
2023/01/27 00:09:29;;;;;;;49.67;22.50;;;;;;;-2.41;82.01;100804.39;1774944;81;21669;-86
2023/01/27 00:16:00;;;;;;;51.35;23.73;;;;;;;-2.59;83.25;100800.00;1776034;81;21163;-87
2023/01/27 00:19:00;;;;;;;47.40;21.25;;;;;;;-2.13;81.82;100801.56;1776148;81;21207;-82
2023/01/27 00:25:16;;;;;;;44.08;21.68;;;;;;;-1.87;80.97;100791.62;1774655;79;21261;-79
2023/01/27 00:28:24;;;;;;;47.95;18.98;;;;;;;-1.96;80.94;100786.77;1775138;81;21730;-87
2023/01/27 00:34:53;;;;;;;57.05;22.87;;;;;;;-1.88;80.25;100772.47;1775611;79;21798;-79
2023/01/27 00:37:58;;;;;;;49.83;21.10;;;;;;;-1.65;80.17;100776.52;1775305;81;21743;-79
2023/01/27 00:41:19;;;;;;;45.00;19.45;;;;;;;-1.82;80.05;100768.09;1776281;81;21155;-79
2023/01/27 00:44:25;;;;;;;45.67;19.95;;;;;;;-1.82;80.04;100760.53;1774988;81;21190;-79
2023/01/27 00:47:30;;;;;;;49.03;22.20;;;;;;;-1.89;80.05;100761.33;1775664;81;21202;-79
2023/01/27 00:50:37;;;;;;;59.25;22.65;;;;;;;-2.05;80.45;100760.47;1775172;81;21201;-82
2023/01/27 00:53:44;;;;;;;48.63;20.45;;;;;;;-1.92;80.35;100758.84;1774613;81;21774;-86
2023/01/27 00:56:50;;;;;;;46.63;21.82;;;;;;;-1.95;80.45;100767.05;1774670;81;21206;-79
2023/01/27 00:59:56;;;;;;;56.92;22.93;;;;;;;-1.90;80.02;100770.81;1776048;81;21163;-80
2023/01/27 01:03:02;;;;;;;49.98;23.22;;;;;;;-1.99;80.35;100768.16;1775039;81;21743;-87
2023/01/27 01:06:14;;;;;;;49.63;21.27;;;;;;;-1.99;80.62;100761.46;1774549;81;21242;-87
2023/01/27 01:09:09;;;;;;;;;;;;;;;-1.98;80.37;100759.64;1778799;81;21201;-82
2023/01/27 01:12:02;;;;;;;53.50;23.52;;;;;;;-1.96;80.66;100765.33;1775858;81;20613;-79
2023/01/27 01:15:09;;;;;;;52.53;24.63;;;;;;;-1.78;80.25;100761.23;1774886;81;21133;-79
2023/01/27 01:18:15;;;;;;;55.58;23.73;;;;;;;-1.78;80.33;100757.20;1775021;81;21237;-79
2023/01/27 01:21:21;;;;;;;53.73;23.67;;;;;;;-1.85;79.71;100756.67;1774886;81;22169;-87
2023/01/27 01:24:27;;;;;;;41.45;20.32;;;;;;;-1.61;79.60;100755.75;1775545;81;21200;-83
2023/01/27 01:27:36;;;;;;;49.60;23.07;;;;;;;-1.47;78.84;100749.11;1775347;81;21184;-80
2023/01/27 01:30:42;;;;;;;48.30;22.05;;;;;;;-1.57;78.67;100743.89;1776169;78;21197;-88
2023/01/27 01:33:50;;;;;;;51.55;22.75;;;;;;;-1.66;79.23;100740.39;1774869;81;21184;-87
2023/01/27 01:36:56;;;;;;;52.20;23.22;;;;;;;-1.70;79.35;100740.18;1774902;81;21232;-86
2023/01/27 01:40:02;;;;;;;57.33;21.80;;;;;;;-1.63;79.12;100740.23;1776112;81;21236;-79
2023/01/27 01:43:06;;;;;;;56.08;21.62;;;;;;;-1.57;79.27;100738.52;1775361;81;21204;-86
2023/01/27 01:46:11;;;;;;;52.55;27.42;;;;;;;-1.63;79.10;100737.55;1774615;79;21190;-80
2023/01/27 01:49:17;;;;;;;48.15;24.20;;;;;;;-1.58;79.29;100728.27;1776126;81;21713;-86
2023/01/27 01:52:26;;;;;;;46.73;23.35;;;;;;;-1.52;79.22;100722.16;1775397;81;21172;-79
2023/01/27 01:55:32;;;;;;;53.35;21.37;;;;;;;-1.58;79.16;100719.37;1776455;78;21157;-87
2023/01/27 01:58:38;;;;;;;47.85;21.62;;;;;;;-1.47;79.28;100712.02;1776040;81;21180;-87
2023/01/27 02:01:46;;;;;;;47.50;21.25;;;;;;;-1.30;78.95;100714.11;1775902;81;21243;-87
2023/01/27 02:05:06;;;;;;;48.15;23.35;;;;;;;-1.21;78.82;100710.02;1775353;81;21244;-88
2023/01/27 02:08:28;;;;;;;44.73;22.17;;;;;;;-1.16;78.59;100710.60;1772193;81;21218;-79
2023/01/27 02:11:35;;;;;;;51.08;23.38;;;;;;;-0.81;78.51;100717.85;1775868;81;21151;-79
2023/01/27 02:14:42;;;;;;;45.03;21.27;;;;;;;-0.73;78.03;100716.05;1751674;81;21542;-79
2023/01/27 02:17:48;;;;;;;44.05;21.82;;;;;;;-0.86;78.17;100722.64;1772249;81;21749;-80
2023/01/27 02:20:58;;;;;;;51.50;25.40;;;;;;;-0.85;77.98;100726.19;1772626;81;21169;-81
2023/01/27 02:24:11;;;;;;;47.00;21.30;;;;;;;-0.69;77.88;100730.16;1773225;81;21199;-87
2023/01/27 02:27:16;;;;;;;54.60;22.95;;;;;;;-0.71;77.91;100724.00;1771559;81;21208;-80
2023/01/27 02:30:22;;;;;;;52.88;22.40;;;;;;;-0.67;77.76;100717.00;1772933;81;21165;-87
2023/01/27 02:33:21;;;;;;;51.15;23.07;;;;;;;-0.48;77.50;100711.83;1772063;81;21212;-87
2023/01/27 02:36:20;;;;;;;48.63;22.48;;;;;;;-1.40;80.37;100713.41;1771531;81;21208;-79
2023/01/27 02:39:14;;;;;;;52.98;27.65;;;;;;;-1.39;80.88;100715.99;1773112;81;21165;-80
2023/01/27 02:42:00;;;;;;;55.23;28.25;;;;;;;-1.33;81.07;100714.28;1772672;81;21228;-86
2023/01/27 02:44:52;;;;;;;52.35;27.55;;;;;;;-1.19;81.18;100716.62;1746371;82;21176;-86
2023/01/27 02:47:57;;;;;;;63.30;33.10;;;;;;;-1.18;80.75;100722.38;1746183;82;21715;-87
2023/01/27 02:51:02;;;;;;;55.98;34.63;;;;;;;-1.21;80.91;100731.97;1746848;82;21152;-79
2023/01/27 02:54:09;;;;;;;48.42;26.77;;;;;;;-1.38;81.37;100727.59;1746827;82;21159;-86
2023/01/27 02:57:15;;;;;;;66.65;40.30;;;;;;;-0.91;81.03;100729.26;1746340;82;21172;-80
2023/01/27 03:00:36;;;;;;;65.90;36.75;;;;;;;-0.90;80.46;100730.50;1745421;82;21743;-80
2023/01/27 03:03:50;;;;;;;48.13;25.10;;;;;;;-1.15;82.15;100732.94;1745765;82;21218;-80
2023/01/27 03:06:54;;;;;;;53.85;26.35;;;;;;;-0.73;80.69;100736.20;1745811;82;21151;-80
2023/01/27 03:10:00;;;;;;;52.10;31.62;;;;;;;-0.63;80.71;100746.76;1746495;81;21759;-86
2023/01/27 03:13:05;;;;;;;62.03;27.82;;;;;;;-1.27;84.00;100737.68;1771327;81;21248;-79
2023/01/27 03:19:35;;;;;;;51.88;24.82;;;;;;;-0.91;82.78;100729.26;1772196;81;21200;-86
2023/01/27 03:22:41;;;;;;;48.13;22.98;;;;;;;-0.84;82.57;100722.57;1772019;81;21177;-80
2023/01/27 03:25:45;;;;;;;54.30;24.10;;;;;;;-0.66;82.57;100707.13;1771526;81;21181;-79
2023/01/27 03:32:18;;;;;;;51.02;25.00;;;;;;;-0.69;82.49;100712.70;1771701;81;21784;-79
2023/01/27 03:35:33;;;;;;;64.07;31.97;;;;;;;-0.82;82.91;100698.67;1770462;81;21160;-86
2023/01/27 03:48:42;;;;;;;59.45;28.38;;;;;;;-0.34;83.24;100697.04;1770864;81;21201;-82
2023/01/27 03:51:49;;;;;;;58.78;28.10;;;;;;;-0.22;82.55;100694.93;1771930;81;21180;-81
2023/01/27 03:54:54;;;;;;;66.55;27.07;;;;;;;-0.33;82.77;100691.59;1772143;81;21154;-88
2023/01/27 03:58:18;;;;;;;70.05;30.05;;;;;;;-0.21;83.36;100699.34;1771277;81;21192;-88
2023/01/27 04:01:28;;;;;;;64.90;28.62;;;;;;;-0.83;84.13;100702.32;1772048;81;21157;-79
2023/01/27 04:07:57;;;;;;;76.97;42.33;;;;;;;-0.87;86.39;100703.46;1770723;81;21154;-86
2023/01/27 04:14:38;;;;;;;74.20;35.50;;;;;;;-0.96;87.38;100693.28;1780634;80;21729;-87
2023/01/27 04:17:44;;;;;;;70.00;33.83;;;;;;;-1.43;89.91;100694.31;1779795;80;21199;-86
2023/01/27 04:20:50;;;;;;;77.72;35.08;;;;;;;-0.70;87.78;100693.52;1780441;80;21765;-86
2023/01/27 04:23:55;;;;;;;66.53;29.37;;;;;;;-0.59;87.35;100694.56;1779767;80;21226;-86
2023/01/27 04:27:11;;;;;;;61.30;27.27;;;;;;;-0.60;87.18;100702.25;1779773;80;21204;-86
2023/01/27 04:30:17;;;;;;;53.45;25.20;;;;;;;-0.49;87.38;100701.56;1780522;80;21156;-86
2023/01/27 04:33:23;;;;;;;65.80;28.75;;;;;;;-0.48;86.91;100700.60;1778990;80;21200;-86
2023/01/27 04:36:30;;;;;;;46.58;23.02;;;;;;;-0.34;86.97;100708.66;1780174;80;21208;-87
2023/01/27 04:39:36;;;;;;;63.08;27.80;;;;;;;-0.38;86.92;100704.43;1779878;80;21797;-86
2023/01/27 04:42:41;;;;;;;42.93;19.62;;;;;;;-0.49;87.61;100703.39;1779053;80;21230;-80
2023/01/27 04:45:47;;;;;;;26.37;14.70;;;;;;;-0.54;87.23;100707.71;1780526;80;21141;-87
2023/01/27 04:48:55;;;;;;;23.27;13.65;;;;;;;-0.75;87.83;100701.86;1780445;80;21160;-80
2023/01/27 04:52:01;;;;;;;23.60;13.40;;;;;;;-1.43;89.93;100705.05;1780448;80;21239;-87
2023/01/27 04:55:07;;;;;;;32.63;15.45;;;;;;;-1.49;91.58;100707.23;1779119;80;21231;-87
2023/01/27 04:58:15;;;;;;;23.52;13.13;;;;;;;-1.44;91.67;100706.01;1779283;80;21235;-87
2023/01/27 05:01:21;;;;;;;29.10;15.45;;;;;;;-1.33;91.07;100710.73;1780483;80;21148;-80
2023/01/27 05:04:28;;;;;;;31.52;16.62;;;;;;;-1.52;91.74;100715.45;1780554;80;21737;-87
2023/01/27 05:07:35;;;;;;;40.63;18.92;;;;;;;-1.40;90.94;100718.30;1779637;80;21227;-81
2023/01/27 05:10:40;;;;;;;33.00;18.12;;;;;;;-1.44;91.13;100708.69;1780458;80;21188;-87
2023/01/27 05:13:47;;;;;;;36.10;18.60;;;;;;;-1.53;91.70;100714.59;1777370;80;21179;-87
2023/01/27 05:16:54;;;;;;;66.87;29.25;;;;;;;-1.07;90.44;100718.59;1780265;80;21235;-87
2023/01/27 05:19:59;;;;;;;56.25;27.73;;;;;;;-1.00;90.20;100718.59;1780476;80;21160;-87
2023/01/27 05:26:30;;;;;;;54.10;29.60;;;;;;;-0.99;90.13;100716.28;1778742;80;21208;-79
2023/01/27 05:29:36;;;;;;;52.75;29.65;;;;;;;-0.89;90.19;100716.13;1780527;80;21176;-79
2023/01/27 05:32:42;;;;;;;51.65;32.67;;;;;;;-0.82;90.22;100708.55;1779604;80;21177;-79
2023/01/27 05:35:48;;;;;;;45.52;24.10;;;;;;;-0.59;89.73;100719.23;1778813;80;21796;-86
2023/01/27 05:38:54;;;;;;;36.13;17.37;;;;;;;-0.47;89.21;100726.99;1778969;80;21220;-86
2023/01/27 05:41:59;;;;;;;30.62;15.50;;;;;;;-1.04;91.30;100723.75;1779021;80;21747;-87
2023/01/27 05:45:05;;;;;;;30.37;17.17;;;;;;;-1.02;92.56;100718.31;1769303;79;21682;-85
2023/01/27 05:48:10;;;;;;;64.37;38.20;;;;;;;-0.93;92.60;100721.30;1809941;79;21176;-79
2023/01/27 05:51:17;;;;;;;40.43;23.15;;;;;;;-0.63;91.80;100729.30;1794762;79;21701;-78
2023/01/27 05:54:24;;;;;;;47.30;26.73;;;;;;;-0.43;90.41;100733.42;1793114;79;21512;-87
2023/01/27 05:57:29;;;;;;;38.30;20.75;;;;;;;-0.35;89.72;100729.78;1798077;79;21253;-79
2023/01/27 06:00:35;;;;;;;53.10;35.58;;;;;;;-0.57;90.73;100732.08;1756821;81;21141;-86
2023/01/27 06:03:41;;;;;;;40.70;26.87;;;;;;;-0.71;91.40;100729.38;1725593;82;21190;-87
2023/01/27 06:06:48;;;;;;;36.25;19.62;;;;;;;-0.40;91.17;100738.62;1714206;82;21750;-86
2023/01/27 06:09:53;;;;;;;38.02;21.62;;;;;;;-0.22;90.10;100741.13;1745403;81;21201;-79
2023/01/27 06:12:59;;;;;;;43.73;26.85;;;;;;;-0.04;89.91;100741.30;1747885;81;22128;-79
2023/01/27 06:16:05;;;;;;;41.33;25.02;;;;;;;0.11;89.54;100738.95;1735118;81;21149;-79
2023/01/27 06:19:04;;;;;;;34.83;21.85;;;;;;;-0.10;90.46;100741.66;1731505;82;21134;-82
2023/01/27 06:22:09;;;;;;;27.55;14.85;;;;;;;-0.36;90.19;100747.36;1733669;80;21749;-80
2023/01/27 06:25:16;;;;;;;32.95;17.05;;;;;;;-0.03;89.93;100743.02;1734624;81;21765;-88
2023/01/27 06:28:21;;;;;;;43.52;20.75;;;;;;;0.04;89.35;100738.95;1728291;79;21231;-87
2023/01/27 06:31:27;;;;;;;45.83;20.60;;;;;;;0.09;89.54;100731.45;1735421;80;21220;-86
2023/01/27 06:34:33;;;;;;;46.83;22.65;;;;;;;0.27;89.18;100725.84;1738826;80;21141;-86
2023/01/27 06:37:38;;;;;;;49.20;24.55;;;;;;;0.34;89.28;100722.66;1743730;79;21200;-88
2023/01/27 06:40:43;;;;;;;49.33;26.50;;;;;;;0.40;89.15;100716.01;1760191;79;21259;-87
2023/01/27 06:43:43;;;;;;;50.90;29.80;;;;;;;0.46;88.45;100712.91;1736381;79;21731;-86
2023/01/27 06:46:50;;;;;;;81.42;48.83;;;;;;;0.15;89.50;100727.53;1741365;80;21206;-87
2023/01/27 06:49:55;;;;;;;48.02;23.83;;;;;;;0.50;89.42;100720.67;1721728;82;21512;-87
2023/01/27 06:53:08;;;;;;;41.95;22.67;;;;;;;0.61;88.93;100717.73;1729361;82;21835;-79
2023/01/27 06:56:19;;;;;;;35.48;20.17;;;;;;;0.70;89.01;100712.59;1714346;80;21416;-86
2023/01/27 06:59:27;;;;;;;38.85;20.12;;;;;;;0.81;88.93;100712.38;1756886;80;21193;-89
2023/01/27 07:02:35;;;;;;;47.17;22.40;;;;;;;0.93;88.48;100712.88;1734844;80;21849;-81
2023/01/27 07:05:41;;;;;;;56.25;27.52;;;;;;;1.01;87.54;100706.00;1740548;80;21236;-81
2023/01/27 07:08:49;;;;;;;54.15;26.85;;;;;;;1.04;86.54;100696.00;1717249;81;21252;-80
2023/01/27 07:11:55;;;;;;;58.75;28.83;;;;;;;0.89;86.63;100700.09;1733345;80;21201;-79
2023/01/27 07:15:02;;;;;;;57.90;27.02;;;;;;;0.77;87.34;100699.60;1743411;80;21236;-79
2023/01/27 07:18:09;;;;;;;64.27;29.32;;;;;;;0.64;87.87;100700.05;1747785;81;21247;-79
2023/01/27 07:21:12;;;;;;;51.35;25.90;;;;;;;0.69;88.37;100683.09;1749016;81;21149;-86
2023/01/27 07:24:17;;;;;;;56.15;27.32;;;;;;;0.74;88.47;100681.80;1756367;80;21604;-79
2023/01/27 07:27:28;;;;;;;58.45;27.90;;;;;;;0.75;88.72;100688.05;1751599;81;21232;-87
2023/01/27 07:30:34;;;;;;;57.83;29.37;;;;;;;0.79;88.17;100683.33;1748811;81;21206;-87
2023/01/27 07:33:41;;;;;;;71.95;28.90;;;;;;;0.81;88.02;100680.06;1749231;81;21196;-80
2023/01/27 07:36:47;;;;;;;66.40;28.83;;;;;;;0.71;88.78;100672.61;1750780;81;21184;-79
2023/01/27 07:39:52;;;;;;;58.00;29.37;;;;;;;0.78;88.49;100674.87;1724253;82;21233;-86
2023/01/27 07:42:58;;;;;;;63.30;29.37;;;;;;;0.87;88.34;100650.01;1723140;82;22131;-80
2023/01/27 07:46:05;;;;;;;62.58;30.68;;;;;;;0.99;88.37;100638.39;1730370;82;21245;-86
2023/01/27 07:49:11;;;;;;;64.97;30.05;;;;;;;1.09;88.31;100642.16;1726962;82;21233;-79
2023/01/27 07:52:17;;;;;;;58.63;28.98;;;;;;;0.81;90.24;100648.61;1724288;82;21181;-80
2023/01/27 07:55:28;;;;;;;82.12;42.50;;;;;;;0.98;89.66;100651.46;1730330;82;21198;-79
2023/01/27 07:58:35;;;;;;;80.03;43.63;;;;;;;1.28;88.97;100654.72;1740131;81;21157;-80
2023/01/27 08:01:42;;;;;;;89.70;40.45;;;;;;;1.36;88.32;100666.28;1737355;81;21209;-80
2023/01/27 08:04:48;;;;;;;68.70;37.20;;;;;;;1.35;87.86;100652.44;1745445;81;21170;-80
2023/01/27 08:07:57;;;;;;;74.25;35.55;;;;;;;1.43;87.75;100649.20;1748942;81;21224;-79
2023/01/27 08:11:06;;;;;;;82.05;45.38;;;;;;;1.34;87.93;100639.94;1743981;82;21741;-79
2023/01/27 08:14:12;;;;;;;56.90;29.32;;;;;;;1.42;88.00;100638.05;1718153;82;21177;-79
2023/01/27 08:17:17;;;;;;;73.75;40.55;;;;;;;1.38;88.68;100625.76;1747941;80;21180;-79
2023/01/27 08:20:23;;;;;;;95.50;44.27;;;;;;;0.76;89.55;100630.08;1733793;80;21221;-78
2023/01/27 08:23:21;;;;;;;67.03;31.50;;;;;;;0.61;92.56;100628.90;1737390;80;21574;-79
2023/01/27 08:26:27;;;;;;;83.58;52.70;;;;;;;1.40;90.55;100633.23;1792272;79;21173;-78
2023/01/27 08:29:32;;;;;;;85.28;46.02;;;;;;;1.60;89.45;100631.34;1793546;78;21216;-79
2023/01/27 08:32:38;;;;;;;77.45;37.65;;;;;;;1.21;89.71;100622.42;1778004;79;21138;-79
2023/01/27 08:35:44;;;;;;;56.70;28.32;;;;;;;1.31;89.44;100616.37;1770705;79;21145;-78
2023/01/27 08:38:50;;;;;;;60.80;27.67;;;;;;;1.24;90.67;100614.13;1783117;79;21321;-79
2023/01/27 08:41:57;;;;;;;58.40;27.30;;;;;;;1.21;91.03;100599.52;1782453;79;21170;-79
2023/01/27 08:45:03;;;;;;;54.50;27.17;;;;;;;1.27;91.45;100597.75;1784776;79;21158;-80
2023/01/27 08:48:09;;;;;;;64.15;30.10;;;;;;;1.12;91.46;100597.47;1782256;78;21190;-90
2023/01/27 08:51:15;;;;;;;51.45;26.12;;;;;;;1.23;90.71;100583.25;1778834;78;21158;-89
2023/01/27 08:54:26;;;;;;;54.98;27.35;;;;;;;1.18;90.64;100581.38;1782860;79;21785;-92
2023/01/27 08:57:33;;;;;;;50.75;26.23;;;;;;;1.06;90.98;100572.81;1784718;79;21750;-81
2023/01/27 09:00:40;;;;;;;51.75;25.65;;;;;;;1.33;90.56;100575.37;1731824;79;21205;-78
2023/01/27 09:03:45;;;;;;;49.30;24.57;;;;;;;1.49;89.49;100563.83;1700109;81;21429;-79
2023/01/27 09:06:52;;;;;;;49.65;23.47;;;;;;;1.45;89.30;100573.11;1701931;82;21209;-79
2023/01/27 09:09:57;;;;;;;45.65;24.80;;;;;;;1.59;89.09;100563.53;1696804;79;61693;-80
2023/01/27 09:13:06;;;;;;;47.33;24.75;;;;;;;1.90;88.18;100568.02;1695389;83;21286;-80
2023/01/27 09:16:11;;;;;;;49.40;24.32;;;;;;;1.82;88.09;100563.67;1732257;81;21200;-81
2023/01/27 09:19:17;;;;;;;50.10;24.72;;;;;;;1.81;88.06;100557.91;1716564;82;21193;-81
2023/01/27 09:22:22;;;;;;;51.05;25.43;;;;;;;1.75;87.69;100557.88;1721297;82;21188;-81
2023/01/27 09:25:28;;;;;;;44.10;22.93;;;;;;;1.69;88.32;100552.43;1722986;83;21205;-81
2023/01/27 09:28:33;;;;;;;43.05;22.25;;;;;;;1.73;88.40;100549.88;1726643;82;21198;-81
2023/01/27 09:31:38;;;;;;;45.73;23.92;;;;;;;1.80;87.88;100547.61;1722775;83;21213;-80
2023/01/27 09:34:46;;;;;;;39.48;21.48;;;;;;;1.84;87.90;100550.95;1701003;81;21230;-80
2023/01/27 09:38:01;;;;;;;59.10;27.05;;;;;;;1.92;87.82;100560.66;1719984;81;21162;-80
2023/01/27 09:41:33;;;;;;;46.77;23.18;;;;;;;2.11;87.53;100559.63;1712533;81;21193;-81
2023/01/27 09:45:20;;;;;;;41.28;22.50;;;;;;;2.21;86.37;100562.50;1715326;81;21221;-80
2023/01/27 09:49:11;;;;;;;50.80;23.83;;;;;;;2.07;86.02;100555.94;1733361;81;21221;-80
2023/01/27 09:52:38;;;;;;;43.98;22.98;;;;;;;2.25;86.41;100543.25;1718412;81;21276;-80
2023/01/27 09:56:22;;;;;;;43.17;22.62;;;;;;;2.25;86.65;100548.65;1728094;81;21787;-80
2023/01/27 09:59:37;;;;;;;50.12;26.27;;;;;;;2.33;86.47;100544.52;1735694;80;21241;-81
2023/01/27 10:03:05;;;;;;;50.05;23.47;;;;;;;2.51;85.88;100543.10;1735040;81;21861;-80
2023/01/27 10:07:04;;;;;;;52.75;25.72;;;;;;;2.24;86.52;100536.63;1753455;80;21206;-79
2023/01/27 10:10:32;;;;;;;53.92;24.40;;;;;;;2.48;86.34;100542.84;1709843;80;21223;-81
2023/01/27 10:14:01;;;;;;;53.63;26.35;;;;;;;2.50;85.09;100528.74;1782943;79;21197;-80
2023/01/27 10:17:37;;;;;;;52.83;24.80;;;;;;;2.77;85.07;100528.39;1762407;79;22392;-80
2023/01/27 10:21:00;;;;;;;51.70;25.43;;;;;;;2.56;84.41;100522.86;1766123;79;21225;-80
2023/01/27 10:24:27;;;;;;;55.78;26.77;;;;;;;2.42;84.60;100518.16;1767779;79;21797;-82
2023/01/27 10:27:30;;;;;;;52.20;26.17;;;;;;;2.33;84.43;100520.22;1722540;81;21180;-82
2023/01/27 10:30:43;;;;;;;47.90;25.05;;;;;;;2.36;84.70;100510.05;1741249;80;21564;-80
2023/01/27 10:34:02;;;;;;;55.78;23.62;;;;;;;2.41;84.56;100506.51;1752294;80;21224;-80
2023/01/27 10:37:34;;;;;;;57.93;28.12;;;;;;;2.58;83.59;100498.91;1749087;81;21205;-80
2023/01/27 10:40:59;;;;;;;54.75;24.07;;;;;;;2.19;83.54;100495.64;1724023;82;21361;-80
2023/01/27 10:44:31;;;;;;;53.68;26.80;;;;;;;1.99;84.57;100491.78;1740096;80;22378;-79
2023/01/27 10:47:50;;;;;;;51.80;26.65;;;;;;;2.23;83.87;100484.98;1726652;80;21205;-80
2023/01/27 10:51:10;;;;;;;55.12;26.70;;;;;;;2.12;83.77;100470.98;1732982;80;21157;-79
2023/01/27 10:54:25;;;;;;;63.90;27.63;;;;;;;2.05;83.54;100458.92;1764234;81;21218;-79
2023/01/27 10:57:38;;;;;;;56.98;27.62;;;;;;;1.81;83.74;100452.72;1767683;81;21210;-79
2023/01/27 11:00:50;;;;;;;66.95;29.05;;;;;;;2.07;84.17;100457.45;1761964;79;21181;-81
2023/01/27 11:04:11;;;;;;;48.83;24.70;;;;;;;2.23;82.89;100449.90;1771370;79;21178;-80
2023/01/27 11:07:27;;;;;;;63.33;26.85;;;;;;;2.16;82.94;100455.39;1760369;79;21217;-80
2023/01/27 11:11:43;;;;;;;57.62;25.65;;;;;;;2.41;82.68;100457.05;1766888;79;21259;-80
2023/01/27 11:14:01;;;;;;;51.45;26.07;;;;;;;2.14;83.53;100447.42;1754624;79;21198;-80
2023/01/27 11:17:20;;;;;;;60.63;25.25;;;;;;;2.41;82.81;100448.46;1749456;79;21217;-79
2023/01/27 11:20:50;;;;;;;48.23;24.60;;;;;;;2.40;83.60;100449.91;1771795;79;21170;-80
2023/01/27 11:23:59;;;;;;;52.83;24.23;;;;;;;2.39;83.38;100450.41;1764586;79;22375;-80
2023/01/27 11:27:22;;;;;;;44.65;23.90;;;;;;;2.77;81.47;100435.20;1763253;79;21217;-80
2023/01/27 11:31:07;;;;;;;52.67;25.72;;;;;;;2.77;81.28;100436.55;1770646;79;21234;-80
2023/01/27 11:34:41;;;;;;;53.05;25.68;;;;;;;2.83;80.57;100440.63;1696258;82;21238;-79
2023/01/27 11:37:55;;;;;;;46.75;24.52;;;;;;;3.07;79.49;100423.77;1692970;80;21215;-82
2023/01/27 11:41:04;;;;;;;56.05;24.82;;;;;;;3.06;78.89;100430.16;1744787;81;21812;-80
2023/01/27 11:44:22;;;;;;;48.83;25.05;;;;;;;2.85;79.05;100425.14;1737771;80;21198;-81
2023/01/27 11:47:34;;;;;;;44.25;22.42;;;;;;;2.66;80.24;100436.56;1762344;79;21217;-81
2023/01/27 11:50:40;;;;;;;47.90;24.00;;;;;;;2.85;80.26;100435.09;1772336;79;21775;-80
2023/01/27 11:53:46;;;;;;;46.80;23.73;;;;;;;2.83;80.52;100434.37;1770270;79;21292;-82
2023/01/27 11:56:54;;;;;;;47.78;24.47;;;;;;;2.82;80.64;100418.62;1772342;79;21249;-82
2023/01/27 12:00:11;;;;;;;49.70;24.55;;;;;;;3.04;80.21;100428.55;1777757;79;21190;-82
2023/01/27 12:03:39;;;;;;;57.00;25.97;;;;;;;3.06;79.34;100426.11;1792333;79;22589;-81
2023/01/27 12:07:23;;;;;;;53.40;24.43;;;;;;;3.08;79.47;100428.17;1782638;79;21245;-83
2023/01/27 12:10:43;;;;;;;47.55;24.63;;;;;;;3.36;78.99;100428.61;1776539;79;21176;-82
2023/01/27 12:14:05;;;;;;;54.40;24.85;;;;;;;3.39;77.89;100432.42;1738708;80;21251;-81
2023/01/27 12:17:11;;;;;;;56.13;24.55;;;;;;;3.19;78.60;100436.75;1738681;80;21204;-82
2023/01/27 12:20:48;;;;;;;49.18;24.10;;;;;;;3.08;78.99;100436.78;1724990;82;22462;-81
2023/01/27 12:23:59;;;;;;;52.93;24.82;;;;;;;3.32;78.60;100435.26;1712947;81;21200;-80
2023/01/27 12:26:52;;;;;;;58.90;27.32;;;;;;;3.01;79.70;100431.50;1728039;82;21224;-80
2023/01/27 12:30:01;;;;;;;49.58;25.45;;;;;;;2.99;80.21;100434.33;1729628;81;21472;-80
2023/01/27 12:33:06;;;;;;;51.18;25.62;;;;;;;3.04;79.96;100428.05;1736088;81;21213;-80
2023/01/27 12:36:24;;;;;;;49.45;25.32;;;;;;;3.08;79.88;100415.16;1729713;81;21268;-80
2023/01/27 12:39:55;;;;;;;50.88;24.45;;;;;;;3.24;79.13;100419.66;1727164;81;21695;-82
2023/01/27 12:43:19;;;;;;;42.83;23.52;;;;;;;3.41;78.85;100416.06;1708946;82;21208;-80
2023/01/27 12:46:33;;;;;;;52.00;22.60;;;;;;;3.46;78.88;100419.23;1727604;81;21217;-81
2023/01/27 12:49:43;;;;;;;43.50;22.60;;;;;;;3.51;78.60;100422.42;1730433;81;21196;-80
2023/01/27 12:52:49;;;;;;;44.05;22.55;;;;;;;3.20;79.00;100428.14;1736006;82;21204;-81
2023/01/27 12:56:15;;;;;;;47.10;22.52;;;;;;;3.03;79.88;100426.84;1724646;81;21229;-80
2023/01/27 12:59:22;;;;;;;46.33;23.47;;;;;;;3.09;79.51;100443.90;1736298;81;21189;-81
2023/01/27 13:02:29;;;;;;;44.27;22.70;;;;;;;3.02;79.81;100444.05;1762723;81;21261;-81
2023/01/27 13:05:35;;;;;;;42.93;21.52;;;;;;;3.10;79.79;100438.85;1762039;79;21316;-80
2023/01/27 13:08:40;;;;;;;44.10;21.62;;;;;;;3.06;79.55;100442.82;1759395;79;21177;-81
2023/01/27 13:11:45;;;;;;;37.83;20.47;;;;;;;3.23;78.93;100432.81;1749941;80;21202;-81
2023/01/27 13:14:51;;;;;;;40.48;19.60;;;;;;;3.24;79.17;100439.08;1759235;79;21511;-81
2023/01/27 13:18:03;;;;;;;40.35;20.82;;;;;;;3.26;78.70;100432.57;1773780;79;21190;-81
2023/01/27 13:21:25;;;;;;;47.38;22.48;;;;;;;3.24;78.18;100423.71;1768950;79;21182;-80
2023/01/27 13:24:44;;;;;;;42.95;21.37;;;;;;;3.39;77.58;100430.19;1777430;79;21173;-80
2023/01/27 13:27:49;;;;;;;39.85;21.07;;;;;;;3.07;77.84;100418.86;1776186;79;21178;-80
2023/01/27 13:31:01;;;;;;;42.48;21.02;;;;;;;3.19;77.89;100423.73;1773149;79;21201;-80
2023/01/27 13:34:13;;;;;;;46.63;20.27;;;;;;;3.01;78.30;100416.17;1783543;79;21185;-80
2023/01/27 13:37:54;;;;;;;45.43;20.72;;;;;;;3.17;78.00;100423.87;1775830;79;21174;-80
2023/01/27 13:41:00;;;;;;;49.53;19.17;;;;;;;3.25;77.99;100419.19;1775913;79;21170;-80
2023/01/27 13:44:31;;;;;;;38.55;19.75;;;;;;;3.13;77.77;100428.30;1771366;79;21185;-82
2023/01/27 13:48:03;;;;;;;33.98;18.92;;;;;;;3.07;77.81;100431.88;1781027;79;21186;-80
2023/01/27 13:51:18;;;;;;;41.50;18.85;;;;;;;3.07;77.94;100424.26;1781824;79;21198;-80
2023/01/27 13:54:25;;;;;;;39.90;19.48;;;;;;;2.98;78.15;100429.06;1775260;79;21198;-80
2023/01/27 13:57:53;;;;;;;42.13;19.60;;;;;;;3.06;77.66;100425.25;1773663;79;21839;-79
2023/01/27 14:01:16;;;;;;;41.65;19.20;;;;;;;3.06;77.83;100423.90;1760817;81;21197;-80
2023/01/27 14:04:50;;;;;;;41.63;18.40;;;;;;;3.15;77.26;100419.06;1767192;80;21208;-80
2023/01/27 14:08:12;;;;;;;38.17;19.20;;;;;;;3.22;76.82;100418.94;1748049;81;21197;-80
2023/01/27 14:12:00;;;;;;;43.40;19.27;;;;;;;3.22;76.75;100420.29;1758013;79;21186;-80
2023/01/27 14:15:28;;;;;;;41.75;19.90;;;;;;;2.91;77.73;100420.58;1779854;79;21776;-80
2023/01/27 14:18:53;;;;;;;38.08;18.95;;;;;;;2.84;77.85;100407.22;1785904;79;21178;-80
2023/01/27 14:22:03;;;;;;;40.25;19.85;;;;;;;2.85;77.85;100403.52;1802234;79;21194;-81
2023/01/27 14:25:23;;;;;;;32.98;17.00;;;;;;;2.19;80.06;100407.44;1802317;79;21197;-80
2023/01/27 14:28:59;;;;;;;42.65;18.50;;;;;;;2.15;80.56;100404.61;1800977;79;21218;-80
2023/01/27 14:32:43;;;;;;;40.50;18.82;;;;;;;1.99;81.18;100406.30;1802113;79;21194;-80
2023/01/27 14:36:16;;;;;;;39.42;17.77;;;;;;;2.20;81.43;100409.15;1801200;79;21222;-79
2023/01/27 14:40:01;;;;;;;37.38;17.42;;;;;;;1.82;81.76;100412.13;1803829;79;21205;-80
2023/01/27 14:43:25;;;;;;;41.45;16.97;;;;;;;1.67;82.53;100426.30;1804062;79;21205;-80
2023/01/27 14:47:00;;;;;;;39.75;17.35;;;;;;;1.81;81.81;100417.66;1803481;79;21166;-80
2023/01/27 14:50:40;;;;;;;42.60;17.60;;;;;;;1.99;81.11;100413.05;1803229;79;21713;-79
2023/01/27 14:53:59;;;;;;;29.67;15.30;;;;;;;1.85;81.48;100407.86;1769030;79;21206;-79
2023/01/27 14:57:40;;;;;;;49.05;16.40;;;;;;;2.10;80.46;100418.95;1800983;79;22651;-79
2023/01/27 15:01:13;;;;;;;40.03;18.00;;;;;;;1.87;80.78;100417.17;1799790;79;21229;-79
2023/01/27 15:04:44;;;;;;;41.80;18.02;;;;;;;1.53;82.23;100417.91;1802089;79;21189;-80
2023/01/27 15:08:09;;;;;;;42.75;18.90;;;;;;;2.11;80.59;100407.17;1779194;79;21213;-79
2023/01/27 15:12:00;;;;;;;39.18;17.32;;;;;;;1.67;80.66;100406.58;1741003;82;21167;-79
2023/01/27 15:15:54;;;;;;;39.35;18.52;;;;;;;1.33;82.66;100406.43;1740299;82;21257;-80